Time;durP1;ratioP1;P1;durP2;ratioP2;P2;SDS_P1;SDS_P2;PMS_P1;PMS_P2;Temp;Humidity;BMP_temperature;BMP_pressure;BME280_temperature;BME280_humidity;BME280_pressure;Samples;Min_cycle;Max_cycle;Signal;HPM_P1;HPM_P2
2022/07/16 00:02:35;;;;;;;4.15;1.90;;;;;;;18.69;46.71;100417.31;5074262;28;20036;-68
2022/07/16 00:05:03;;;;;;;5.10;1.85;;;;;;;18.88;46.05;100409.22;5074034;28;20040;-67
2022/07/16 00:07:33;;;;;;;5.43;1.80;;;;;;;18.80;46.07;100417.16;5073704;28;20059;-68
2022/07/16 00:10:02;;;;;;;4.53;1.80;;;;;;;18.60;46.83;100405.44;5073902;28;20040;-68
2022/07/16 00:12:30;;;;;;;5.50;1.90;;;;;;;18.48;47.54;100403.03;5074197;28;20562;-68
2022/07/16 00:14:58;;;;;;;4.75;2.20;;;;;;;18.39;47.47;100395.75;5056301;28;20497;-68
2022/07/16 00:17:27;;;;;;;4.30;2.00;;;;;;;18.57;47.39;100402.19;5074030;28;20064;-67
2022/07/16 00:19:54;;;;;;;5.10;2.08;;;;;;;18.44;47.40;100398.91;5073993;28;20041;-68
2022/07/16 00:22:22;;;;;;;4.00;1.50;;;;;;;18.33;47.90;100396.28;5074010;28;20045;-68
2022/07/16 00:24:52;;;;;;;5.38;2.03;;;;;;;18.28;48.18;100405.69;5074137;28;20094;-68
2022/07/16 00:27:21;;;;;;;5.53;2.10;;;;;;;18.14;48.69;100405.19;5073708;28;20049;-68
2022/07/16 00:29:49;;;;;;;4.15;2.00;;;;;;;18.20;48.29;100402.81;5056124;28;20413;-68
2022/07/16 00:32:17;;;;;;;3.97;1.80;;;;;;;18.39;47.84;100401.16;5073723;28;20135;-68
2022/07/16 00:34:45;;;;;;;5.07;1.90;;;;;;;18.26;48.34;100404.97;5056456;28;20094;-68
2022/07/16 00:37:14;;;;;;;4.95;1.70;;;;;;;18.29;47.98;100410.09;5073474;28;20051;-68
2022/07/16 00:39:42;;;;;;;4.97;2.08;;;;;;;18.18;48.38;100410.19;5073892;28;20155;-67
2022/07/16 00:42:12;;;;;;;4.32;1.90;;;;;;;18.24;47.97;100398.84;5055874;28;20044;-68
2022/07/16 00:44:41;;;;;;;4.60;1.88;;;;;;;18.26;48.01;100399.56;5073936;28;20474;-68
2022/07/16 00:47:09;;;;;;;4.43;1.75;;;;;;;18.26;47.82;100396.00;5073540;28;20044;-68
2022/07/16 00:49:37;;;;;;;2.97;1.70;;;;;;;18.30;47.68;100398.28;5073523;28;20511;-68
2022/07/16 00:52:06;;;;;;;7.28;2.20;;;;;;;18.20;48.24;100400.09;5073467;28;20512;-68
2022/07/16 00:54:35;;;;;;;4.05;1.80;;;;;;;17.99;49.23;100396.63;5073708;28;20430;-68
2022/07/16 00:57:03;;;;;;;3.92;1.92;;;;;;;17.85;49.61;100405.06;5055825;28;20135;-68
2022/07/16 00:59:33;;;;;;;4.13;2.10;;;;;;;17.74;50.04;100412.28;5073193;28;20048;-68
2022/07/16 01:02:01;;;;;;;3.83;1.88;;;;;;;17.68;50.27;100411.94;5072723;28;20040;-68
2022/07/16 01:04:30;;;;;;;5.22;2.08;;;;;;;17.71;50.54;100411.69;5073223;28;20121;-68
2022/07/16 01:06:59;;;;;;;4.78;2.00;;;;;;;17.78;50.23;100412.88;5073392;28;20094;-68
2022/07/16 01:09:32;;;;;;;;;;;;;;;17.81;50.06;100411.75;5055802;28;20489;-68
2022/07/16 01:12:01;;;;;;;5.93;2.17;;;;;;;17.79;49.92;100413.72;5072925;28;20011;-68
2022/07/16 01:14:31;;;;;;;3.85;1.85;;;;;;;17.77;50.42;100404.94;5073289;28;20119;-68
2022/07/16 01:17:01;;;;;;;3.35;2.00;;;;;;;17.72;50.12;100403.47;5073141;28;20109;-68
2022/07/16 01:19:29;;;;;;;3.33;1.83;;;;;;;17.77;50.17;100416.56;5072951;28;20041;-68
2022/07/16 01:21:58;;;;;;;5.50;1.95;;;;;;;17.72;50.13;100411.56;5072908;28;20055;-68
2022/07/16 01:24:28;;;;;;;3.65;2.03;;;;;;;17.72;50.04;100405.31;5073057;28;20127;-68
2022/07/16 01:26:56;;;;;;;4.90;2.17;;;;;;;17.68;50.15;100406.53;5071900;28;20106;-68
2022/07/16 01:29:24;;;;;;;4.47;1.85;;;;;;;17.60;50.24;100404.50;5072956;28;20553;-68
2022/07/16 01:31:53;;;;;;;5.05;1.98;;;;;;;17.60;50.35;100409.91;5073232;28;20064;-68
2022/07/16 01:34:27;;;;;;;5.32;2.05;;;;;;;17.66;50.09;100414.78;5072791;28;20405;-68
2022/07/16 01:36:57;;;;;;;2.50;1.70;;;;;;;17.65;50.08;100410.34;5072934;28;20080;-68
2022/07/16 01:39:27;;;;;;;5.88;2.25;;;;;;;17.76;49.87;100408.59;5072818;28;20083;-68
2022/07/16 01:41:58;;;;;;;6.05;2.10;;;;;;;17.73;49.77;100405.16;5073083;28;20051;-67
2022/07/16 01:44:30;;;;;;;7.18;2.00;;;;;;;17.64;50.13;100411.34;5072767;28;20044;-67
2022/07/16 01:47:00;;;;;;;4.82;2.08;;;;;;;17.66;49.94;100417.47;5072889;28;20066;-67
2022/07/16 01:49:32;;;;;;;5.35;2.08;;;;;;;17.80;49.65;100418.13;5072627;28;20060;-68
2022/07/16 01:52:08;;;;;;;3.13;1.98;;;;;;;17.73;49.79;100415.09;5073129;28;20040;-67
2022/07/16 01:54:41;;;;;;;3.80;2.08;;;;;;;17.67;50.04;100411.09;5072777;28;20094;-67
2022/07/16 01:57:11;;;;;;;4.00;2.05;;;;;;;17.73;49.92;100415.09;5055085;28;20056;-67
2022/07/16 01:59:40;;;;;;;4.03;1.90;;;;;;;17.67;50.10;100416.47;5072535;28;20071;-67
2022/07/16 02:02:09;;;;;;;3.38;1.80;;;;;;;17.63;49.93;100425.81;5054938;28;20056;-67
2022/07/16 02:04:37;;;;;;;6.22;1.95;;;;;;;17.68;50.18;100415.50;5072711;28;20048;-67
2022/07/16 02:07:06;;;;;;;5.18;2.20;;;;;;;17.59;50.44;100416.28;5072619;28;20045;-67
2022/07/16 02:09:35;;;;;;;3.70;1.90;;;;;;;17.57;50.49;100420.13;5072250;28;20049;-67
2022/07/16 02:12:04;;;;;;;5.43;1.98;;;;;;;17.55;50.69;100422.91;5072406;28;20554;-67
2022/07/16 02:14:33;;;;;;;3.53;2.08;;;;;;;17.45;50.79;100412.06;5074781;28;20166;-67
2022/07/16 02:17:02;;;;;;;4.05;2.08;;;;;;;17.54;50.70;100409.56;5076474;28;20135;-67
2022/07/16 02:19:30;;;;;;;4.03;2.13;;;;;;;17.55;50.61;100414.81;5076345;28;20041;-67
2022/07/16 02:22:01;;;;;;;6.43;2.13;;;;;;;17.45;51.23;100413.91;5076532;28;20111;-67
2022/07/16 02:24:29;;;;;;;6.90;2.40;;;;;;;17.36;51.20;100398.53;5076159;28;20141;-67
2022/07/16 02:26:57;;;;;;;4.50;1.83;;;;;;;17.42;51.01;100404.25;5076193;28;20063;-67
2022/07/16 02:29:26;;;;;;;4.85;2.38;;;;;;;17.31;51.51;100406.19;5076295;28;20075;-67
2022/07/16 02:31:55;;;;;;;5.53;2.17;;;;;;;17.26;52.08;100405.69;5076288;28;20123;-67
2022/07/16 02:34:24;;;;;;;4.30;1.83;;;;;;;17.06;52.48;100404.69;5075572;28;20045;-67
2022/07/16 02:36:52;;;;;;;5.63;2.20;;;;;;;17.07;52.52;100411.81;5075836;28;20485;-67
2022/07/16 02:39:21;;;;;;;3.80;2.13;;;;;;;17.03;52.50;100411.22;5075678;28;20044;-68
2022/07/16 02:41:49;;;;;;;3.97;2.00;;;;;;;17.16;52.15;100411.03;5076328;28;20119;-67
2022/07/16 02:44:18;;;;;;;7.85;2.08;;;;;;;17.16;52.09;100411.03;5076023;28;20436;-67
2022/07/16 02:46:46;;;;;;;3.75;2.05;;;;;;;17.15;52.01;100415.56;5075952;28;20123;-68
2022/07/16 02:49:16;;;;;;;4.60;2.20;;;;;;;17.03;52.53;100404.97;5075909;28;20127;-68
2022/07/16 02:51:45;;;;;;;4.43;2.30;;;;;;;17.10;52.18;100417.81;5075602;28;20387;-68
2022/07/16 02:54:13;;;;;;;6.30;2.30;;;;;;;17.05;52.68;100416.47;5075898;28;20093;-67
2022/07/16 02:56:42;;;;;;;4.40;2.17;;;;;;;17.13;52.18;100419.38;5075517;28;20535;-66
2022/07/16 02:59:10;;;;;;;5.28;2.10;;;;;;;17.10;52.33;100423.19;5075719;28;20044;-66
2022/07/16 03:01:38;;;;;;;5.70;2.33;;;;;;;17.19;51.98;100418.88;5075437;28;20120;-67
2022/07/16 03:04:06;;;;;;;4.28;2.20;;;;;;;17.11;52.15;100419.50;5075852;28;20048;-66
2022/07/16 03:06:36;;;;;;;6.70;1.90;;;;;;;17.11;52.13;100418.66;5075255;28;20444;-68
2022/07/16 03:09:05;;;;;;;3.45;2.03;;;;;;;17.09;52.26;100426.88;5075640;28;20048;-68
2022/07/16 03:11:33;;;;;;;4.05;1.92;;;;;;;17.07;52.23;100423.44;5075100;28;20055;-68
2022/07/16 03:14:01;;;;;;;5.38;2.50;;;;;;;17.05;52.53;100428.09;5075819;28;20041;-68
2022/07/16 03:16:30;;;;;;;5.35;1.98;;;;;;;17.02;52.69;100431.06;5075409;28;20486;-68
2022/07/16 03:18:58;;;;;;;4.00;1.98;;;;;;;16.98;52.87;100440.38;5075399;28;20071;-68
2022/07/16 03:21:26;;;;;;;4.55;2.40;;;;;;;17.12;52.27;100437.38;5075163;28;20128;-68
2022/07/16 03:23:56;;;;;;;3.58;2.00;;;;;;;17.15;52.68;100437.13;5075357;28;20120;-67
2022/07/16 03:26:24;;;;;;;5.82;2.53;;;;;;;17.37;51.66;100444.25;5074123;28;20127;-68
2022/07/16 03:28:52;;;;;;;4.82;2.60;;;;;;;17.26;52.39;100443.44;5075230;28;20119;-68
2022/07/16 03:31:20;;;;;;;5.45;2.25;;;;;;;17.17;52.99;100445.94;5075011;28;20040;-68
2022/07/16 03:33:49;;;;;;;4.88;2.53;;;;;;;17.34;52.01;100451.72;5075331;28;20045;-68
2022/07/16 03:36:18;;;;;;;6.65;2.30;;;;;;;17.37;51.93;100446.97;5075006;28;20044;-68
2022/07/16 03:38:58;;;;;;;4.72;2.30;;;;;;;17.41;51.86;100439.44;5056979;28;20486;-68
2022/07/16 03:41:29;;;;;;;5.25;2.15;;;;;;;17.45;52.38;100443.56;5074902;28;20110;-68
2022/07/16 03:43:57;;;;;;;4.70;2.08;;;;;;;17.63;52.44;100447.38;5074844;28;20082;-68
2022/07/16 03:46:25;;;;;;;5.57;2.10;;;;;;;17.81;51.60;100449.50;5074728;28;20123;-69
2022/07/16 03:48:54;;;;;;;6.00;2.10;;;;;;;18.23;50.21;100451.13;5075103;28;20119;-68
2022/07/16 03:51:22;;;;;;;4.10;2.13;;;;;;;19.17;48.03;100451.59;5074795;28;20458;-67
2022/07/16 03:53:51;;;;;;;6.60;2.28;;;;;;;19.37;47.38;100447.03;5074660;28;20067;-68
2022/07/16 03:56:19;;;;;;;5.57;2.25;;;;;;;19.75;46.30;100443.44;5056885;28;20123;-67
2022/07/16 03:58:49;;;;;;;4.68;2.50;;;;;;;20.55;43.33;100448.25;5074396;28;20045;-67
2022/07/16 04:01:18;;;;;;;7.97;2.42;;;;;;;20.92;42.71;100447.31;5074324;28;20072;-67
2022/07/16 04:03:46;;;;;;;3.72;2.13;;;;;;;19.68;44.63;100450.44;5074383;28;20040;-68
2022/07/16 04:06:14;;;;;;;3.90;1.90;;;;;;;20.47;43.04;100448.19;5074609;28;20098;-68
2022/07/16 04:08:43;;;;;;;4.43;2.13;;;;;;;21.22;41.93;100454.19;5076084;28;20091;-68
2022/07/16 04:11:11;;;;;;;4.68;2.03;;;;;;;22.02;39.89;100448.72;5077093;28;20036;-68
2022/07/16 04:13:41;;;;;;;5.65;2.30;;;;;;;21.70;40.20;100447.47;5074268;28;20493;-68
2022/07/16 04:16:11;;;;;;;5.45;1.90;;;;;;;21.91;39.62;100452.56;5074287;28;20072;-67
2022/07/16 04:18:40;;;;;;;5.60;2.10;;;;;;;22.61;38.27;100444.25;5074162;28;20059;-66
2022/07/16 04:21:09;;;;;;;4.40;1.90;;;;;;;23.23;37.69;100450.16;5074237;28;20037;-67
2022/07/16 04:23:37;;;;;;;5.18;2.00;;;;;;;23.48;37.10;100445.59;5073744;28;20040;-66
2022/07/16 04:26:05;;;;;;;5.40;2.40;;;;;;;22.06;39.25;100448.22;5074182;28;20042;-68
2022/07/16 04:28:34;;;;;;;3.42;2.10;;;;;;;22.47;38.08;100437.56;5073739;28;20045;-68
2022/07/16 04:31:02;;;;;;;5.75;1.83;;;;;;;22.93;37.77;100440.78;5074003;28;20049;-68
2022/07/16 04:33:32;;;;;;;3.88;1.92;;;;;;;23.57;36.60;100450.84;5073628;28;20075;-68
2022/07/16 04:36:02;;;;;;;4.82;2.20;;;;;;;22.88;37.84;100449.47;5073710;28;20474;-68
2022/07/16 04:38:31;;;;;;;4.43;2.10;;;;;;;23.63;36.95;100444.72;5073817;28;20178;-68
2022/07/16 04:40:59;;;;;;;6.38;2.00;;;;;;;23.96;36.01;100442.81;5073510;28;20109;-68
2022/07/16 04:43:28;;;;;;;5.03;2.03;;;;;;;23.82;36.03;100443.50;5073539;28;20120;-69
2022/07/16 04:45:56;;;;;;;4.28;2.15;;;;;;;24.13;35.41;100437.31;5073471;28;20448;-68
2022/07/16 04:48:24;;;;;;;5.07;1.70;;;;;;;23.71;36.26;100441.16;5055560;28;20465;-67
2022/07/16 04:50:55;;;;;;;4.13;2.10;;;;;;;23.78;36.12;100436.72;5073572;28;20123;-68
2022/07/16 04:53:23;;;;;;;3.80;2.03;;;;;;;23.17;37.04;100438.09;5073806;28;20382;-68
2022/07/16 04:55:51;;;;;;;4.38;2.10;;;;;;;23.86;36.41;100436.72;5073447;28;20036;-68
2022/07/16 04:58:20;;;;;;;3.20;1.80;;;;;;;23.78;36.41;100435.88;5073520;28;20115;-72
2022/07/16 05:00:48;;;;;;;3.53;2.08;;;;;;;23.02;37.53;100435.19;5073194;28;20548;-68
2022/07/16 05:03:16;;;;;;;3.30;1.95;;;;;;;23.07;37.27;100432.81;5073247;28;20045;-67
2022/07/16 05:05:49;;;;;;;4.90;2.35;;;;;;;24.50;35.40;100440.25;5073373;28;20071;-68
2022/07/16 05:08:18;;;;;;;6.03;2.10;;;;;;;25.18;34.00;100441.38;5055321;28;20448;-68
2022/07/16 05:10:47;;;;;;;4.30;2.00;;;;;;;24.80;34.68;100441.31;5073235;28;20445;-68
2022/07/16 05:13:15;;;;;;;3.72;1.70;;;;;;;24.95;34.43;100435.91;5073520;28;20470;-68
2022/07/16 05:15:44;;;;;;;5.55;1.98;;;;;;;25.98;32.58;100438.13;5072832;28;20048;-68
2022/07/16 05:18:12;;;;;;;3.75;2.00;;;;;;;24.82;34.35;100441.13;5073517;28;20067;-68
2022/07/16 05:20:41;;;;;;;4.35;2.10;;;;;;;24.87;34.52;100440.56;5072732;28;20090;-68
2022/07/16 05:23:09;;;;;;;5.32;2.13;;;;;;;25.68;32.96;100442.69;5073368;28;20105;-68
2022/07/16 05:25:39;;;;;;;4.20;2.00;;;;;;;26.72;31.67;100444.38;5072872;28;20047;-68
2022/07/16 05:28:07;;;;;;;5.55;2.33;;;;;;;26.86;31.04;100436.34;5072937;28;20136;-68
2022/07/16 05:30:35;;;;;;;2.42;1.50;;;;;;;26.72;30.89;100433.44;5072752;28;20102;-68
2022/07/16 05:33:04;;;;;;;3.88;1.80;;;;;;;27.31;30.90;100444.22;5055025;28;20080;-68
2022/07/16 05:35:33;;;;;;;3.45;1.60;;;;;;;27.55;30.17;100442.94;5072754;28;20053;-68
2022/07/16 05:38:01;;;;;;;3.78;1.65;;;;;;;27.68;29.55;100439.50;5072975;28;20473;-68
2022/07/16 05:40:29;;;;;;;3.13;1.90;;;;;;;27.88;29.59;100437.75;5073108;28;20072;-68
2022/07/16 05:42:59;;;;;;;3.17;1.70;;;;;;;28.20;29.01;100439.00;5072842;28;20045;-68
2022/07/16 05:45:28;;;;;;;4.88;1.83;;;;;;;27.49;29.81;100443.72;5073021;28;20479;-68
2022/07/16 05:47:56;;;;;;;4.40;2.03;;;;;;;27.77;29.35;100441.03;5055174;28;20059;-68
2022/07/16 05:50:25;;;;;;;4.68;1.77;;;;;;;28.36;29.10;100435.09;5077117;28;20446;-68
2022/07/16 05:52:53;;;;;;;6.68;1.98;;;;;;;28.34;28.93;100436.38;5076666;28;20075;-68
2022/07/16 05:55:22;;;;;;;5.43;2.00;;;;;;;28.50;27.78;100439.63;5058661;28;20056;-68
2022/07/16 05:57:51;;;;;;;4.97;1.90;;;;;;;28.83;28.21;100441.63;5076756;28;20045;-68
2022/07/16 06:00:20;;;;;;;4.35;1.85;;;;;;;28.58;27.99;100438.59;5076956;28;20136;-68
2022/07/16 06:02:48;;;;;;;3.53;1.83;;;;;;;28.37;28.74;100452.41;5076246;28;20072;-68
2022/07/16 06:05:17;;;;;;;4.13;1.80;;;;;;;28.90;27.89;100453.50;5076848;28;20072;-68
2022/07/16 06:07:45;;;;;;;3.70;1.58;;;;;;;28.75;27.77;100450.88;5076431;28;20485;-68
2022/07/16 06:10:13;;;;;;;3.97;1.70;;;;;;;28.87;27.77;100453.91;5058719;28;20092;-68
2022/07/16 06:12:42;;;;;;;3.40;1.73;;;;;;;28.69;28.03;100450.88;5076291;28;20049;-68
2022/07/16 06:15:11;;;;;;;4.10;1.80;;;;;;;28.83;27.96;100452.59;5076565;28;20041;-68
2022/07/16 06:17:41;;;;;;;4.03;1.85;;;;;;;28.75;27.92;100450.88;5076239;28;20048;-68
2022/07/16 06:20:10;;;;;;;3.38;1.70;;;;;;;28.83;27.80;100451.75;5076392;28;20123;-68
2022/07/16 06:22:39;;;;;;;3.35;1.77;;;;;;;29.13;27.41;100457.78;5058130;28;20382;-68
2022/07/16 06:25:12;;;;;;;3.25;1.73;;;;;;;29.09;27.35;100462.84;5058719;28;20405;-68
2022/07/16 06:27:42;;;;;;;4.47;1.58;;;;;;;28.97;27.36;100464.53;5076028;28;20075;-68
2022/07/16 06:30:12;;;;;;;4.85;1.90;;;;;;;29.03;27.79;100461.75;5058829;28;20052;-66
2022/07/16 06:32:42;;;;;;;3.85;1.80;;;;;;;29.51;27.03;100471.81;5076106;28;20044;-66
2022/07/16 06:35:10;;;;;;;5.75;1.60;;;;;;;29.56;26.86;100467.38;5076338;28;20123;-66
2022/07/16 06:37:39;;;;;;;6.15;1.73;;;;;;;29.75;26.49;100478.59;5075801;28;20036;-66
2022/07/16 06:40:09;;;;;;;4.20;1.63;;;;;;;29.70;26.14;100481.13;5075923;28;20044;-66
2022/07/16 06:42:37;;;;;;;3.30;1.90;;;;;;;29.12;27.58;100473.41;5075717;28;20051;-68
2022/07/16 06:45:06;;;;;;;3.50;1.60;;;;;;;29.70;27.15;100473.72;5075750;28;20043;-68
2022/07/16 06:47:35;;;;;;;3.03;1.65;;;;;;;29.47;26.21;100479.59;5075811;28;20048;-67
2022/07/16 06:50:09;;;;;;;2.67;1.65;;;;;;;29.48;26.42;100473.09;5076074;28;20036;-66
2022/07/16 06:52:37;;;;;;;4.22;1.77;;;;;;;29.69;26.45;100479.44;5075754;28;20045;-66
2022/07/16 06:55:07;;;;;;;4.18;1.90;;;;;;;29.86;26.44;100480.69;5075697;28;20040;-66
2022/07/16 06:57:36;;;;;;;5.07;1.83;;;;;;;29.51;26.91;100472.66;5075851;28;20040;-67
2022/07/16 07:00:05;;;;;;;3.60;1.70;;;;;;;29.75;26.31;100479.44;5056368;28;20486;-66
2022/07/16 07:02:35;;;;;;;3.47;1.80;;;;;;;29.64;26.40;100472.69;5075374;28;20090;-66
2022/07/16 07:05:03;;;;;;;4.72;1.80;;;;;;;29.23;26.74;100474.69;5057995;28;20052;-68
2022/07/16 07:07:33;;;;;;;5.43;2.15;;;;;;;27.31;30.13;100474.34;5075627;28;20478;-67
2022/07/16 07:10:03;;;;;;;4.15;1.60;;;;;;;26.97;30.19;100479.63;5075340;28;20041;-68
2022/07/16 07:12:31;;;;;;;5.28;1.98;;;;;;;27.06;29.84;100486.72;5075316;28;20101;-68
2022/07/16 07:15:00;;;;;;;5.68;1.90;;;;;;;27.22;30.12;100475.53;5075042;28;20090;-68
2022/07/16 07:17:28;;;;;;;4.95;1.75;;;;;;;26.67;31.21;100470.66;5075527;28;20053;-68
2022/07/16 07:19:57;;;;;;;3.40;1.88;;;;;;;26.67;30.17;100481.59;5075230;28;20054;-67
2022/07/16 07:22:25;;;;;;;3.00;1.80;;;;;;;26.26;30.59;100471.13;5075153;28;20072;-67
2022/07/16 07:24:55;;;;;;;5.32;1.67;;;;;;;26.24;30.54;100476.75;5074882;28;20478;-67
2022/07/16 07:27:23;;;;;;;3.13;1.83;;;;;;;26.38;30.94;100480.59;5075360;28;20048;-67
2022/07/16 07:29:52;;;;;;;3.80;1.95;;;;;;;26.12;31.02;100472.81;5075136;28;20535;-67
2022/07/16 07:32:20;;;;;;;4.93;1.75;;;;;;;25.65;30.85;100471.19;5057408;28;20075;-67
2022/07/16 07:34:48;;;;;;;8.38;2.10;;;;;;;25.92;31.53;100460.72;5056827;28;20048;-67
2022/07/16 07:37:16;;;;;;;3.38;1.60;;;;;;;26.09;30.17;100466.88;5074899;28;20041;-67
2022/07/16 07:39:45;;;;;;;3.17;1.80;;;;;;;25.84;30.09;100471.75;5074826;28;20374;-67
2022/07/16 07:42:14;;;;;;;3.35;1.50;;;;;;;25.81;30.65;100472.13;5056762;28;20044;-67
2022/07/16 07:44:43;;;;;;;3.92;1.70;;;;;;;25.66;30.22;100466.59;5074598;28;20055;-67
2022/07/16 07:47:11;;;;;;;3.83;2.00;;;;;;;25.60;30.75;100478.25;5075051;28;20036;-67
2022/07/16 07:49:39;;;;;;;3.78;1.75;;;;;;;25.79;30.39;100477.78;5074438;28;20048;-68
2022/07/16 07:52:12;;;;;;;4.13;1.83;;;;;;;25.63;30.13;100467.81;5076254;28;20109;-67
2022/07/16 07:54:41;;;;;;;2.83;1.52;;;;;;;25.76;30.13;100472.66;5078205;28;20036;-67
2022/07/16 07:57:09;;;;;;;3.92;1.90;;;;;;;25.76;29.62;100461.72;5057530;28;20468;-67
2022/07/16 07:59:38;;;;;;;4.35;1.90;;;;;;;25.75;29.81;100468.22;5074670;28;20048;-67
2022/07/16 08:02:08;;;;;;;3.65;1.77;;;;;;;25.63;29.53;100473.28;5056351;28;20131;-67
2022/07/16 08:04:36;;;;;;;4.80;1.75;;;;;;;25.56;29.90;100469.56;5074259;28;20044;-67
2022/07/16 08:07:05;;;;;;;4.43;2.10;;;;;;;25.38;30.28;100469.03;5074391;28;20045;-67
2022/07/16 08:09:34;;;;;;;3.95;1.98;;;;;;;25.58;30.13;100461.22;5074474;28;20397;-67
2022/07/16 08:12:03;;;;;;;4.63;2.10;;;;;;;25.37;30.88;100457.28;5073726;28;20042;-67
2022/07/16 08:14:32;;;;;;;4.75;2.03;;;;;;;25.08;31.04;100458.00;5056468;28;20052;-67
2022/07/16 08:17:02;;;;;;;5.00;1.80;;;;;;;25.48;30.79;100453.28;5073866;28;20053;-67
2022/07/16 08:19:32;;;;;;;3.47;1.90;;;;;;;25.68;31.08;100449.00;5074415;28;20044;-67
2022/07/16 08:22:01;;;;;;;5.97;1.92;;;;;;;25.62;30.64;100452.47;5073973;28;20122;-67
2022/07/16 08:27:13;;;;;;;5.75;1.83;;;;;;;25.39;30.64;100449.78;5040892;28;20048;-68
2022/07/16 08:29:41;;;;;;;4.70;2.10;;;;;;;25.32;30.88;100447.94;5073542;28;20037;-67
2022/07/16 08:32:11;;;;;;;4.75;1.90;;;;;;;25.22;31.18;100440.00;5073940;28;20448;-67
2022/07/16 08:34:39;;;;;;;3.78;1.92;;;;;;;25.30;31.03;100444.56;5055867;28;20080;-67
2022/07/16 08:37:09;;;;;;;4.13;1.98;;;;;;;25.29;31.23;100448.31;5073652;28;20102;-67
2022/07/16 08:39:42;;;;;;;4.28;1.77;;;;;;;25.45;31.04;100437.25;5073600;28;20040;-67
2022/07/16 08:42:11;;;;;;;3.38;1.70;;;;;;;25.39;30.88;100438.00;5073998;28;20075;-67
2022/07/16 08:44:40;;;;;;;3.30;1.77;;;;;;;25.17;31.63;100436.13;5073339;28;20072;-67
2022/07/16 08:47:15;;;;;;;5.13;1.90;;;;;;;25.06;31.67;100438.25;5073818;28;20040;-67
2022/07/16 08:49:45;;;;;;;5.30;2.08;;;;;;;25.26;31.44;100432.28;5073414;28;20049;-67
2022/07/16 08:52:13;;;;;;;3.75;1.85;;;;;;;25.26;31.44;100429.56;5055698;28;20064;-67
2022/07/16 08:54:45;;;;;;;4.00;2.00;;;;;;;25.45;31.52;100436.41;5055363;28;20071;-78
2022/07/16 08:57:20;;;;;;;3.80;1.83;;;;;;;25.69;31.34;100431.56;5073585;28;20119;-67
2022/07/16 08:59:49;;;;;;;4.65;1.90;;;;;;;25.72;30.99;100421.31;5073153;28;20037;-67
2022/07/16 09:02:20;;;;;;;4.47;2.10;;;;;;;25.78;30.93;100423.31;5073290;28;20413;-68
2022/07/16 09:04:48;;;;;;;4.38;1.90;;;;;;;25.86;30.64;100428.69;5055002;28;20079;-67
2022/07/16 09:07:17;;;;;;;5.85;2.00;;;;;;;25.43;31.72;100428.41;5073202;28;20051;-67
2022/07/16 09:09:46;;;;;;;3.50;1.98;;;;;;;25.76;30.52;100428.09;5071871;28;20048;-67
2022/07/16 09:12:40;;;;;;;4.03;2.00;;;;;;;25.86;30.14;100429.53;5073500;28;20040;-67
2022/07/16 09:15:31;;;;;;;3.67;2.00;;;;;;;25.50;30.54;100423.91;5073206;28;20044;-67
2022/07/16 09:18:12;;;;;;;5.20;2.00;;;;;;;25.31;30.69;100430.72;5071545;28;20084;-67
2022/07/16 09:20:43;;;;;;;4.70;2.00;;;;;;;25.51;31.02;100425.59;5073166;28;20116;-67
2022/07/16 09:23:28;;;;;;;4.57;1.90;;;;;;;25.59;30.81;100417.31;5072165;28;20545;-67
2022/07/16 09:26:05;;;;;;;3.17;1.83;;;;;;;25.97;30.27;100406.38;5054952;28;20114;-67
2022/07/16 09:28:43;;;;;;;3.50;1.90;;;;;;;26.16;29.90;100399.50;5073390;28;20043;-67
2022/07/16 09:31:12;;;;;;;3.65;1.92;;;;;;;26.39;29.56;100402.97;5073279;28;20044;-68
2022/07/16 09:33:42;;;;;;;4.97;2.00;;;;;;;26.61;29.30;100403.00;5073063;28;20045;-67
2022/07/16 09:36:12;;;;;;;6.55;2.20;;;;;;;26.72;29.25;100402.50;5072779;28;20072;-68
2022/07/16 09:38:48;;;;;;;4.75;1.80;;;;;;;26.66;29.62;100408.75;5073147;28;20468;-67
2022/07/16 09:41:17;;;;;;;5.45;2.15;;;;;;;26.89;28.66;100403.13;5073349;28;20149;-67
2022/07/16 09:43:46;;;;;;;5.07;2.08;;;;;;;26.88;28.52;100406.91;5072616;28;20040;-71
2022/07/16 09:46:20;;;;;;;5.15;2.38;;;;;;;26.65;29.11;100407.91;5072905;28;20119;-67
2022/07/16 09:48:50;;;;;;;3.17;1.70;;;;;;;26.53;29.27;100414.91;5072484;28;20050;-68
2022/07/16 09:51:22;;;;;;;3.67;1.65;;;;;;;26.41;29.68;100403.63;5073058;28;20052;-67
2022/07/16 09:53:52;;;;;;;4.53;2.05;;;;;;;26.51;29.10;100400.59;5072622;28;20481;-68
2022/07/16 09:56:22;;;;;;;3.60;2.03;;;;;;;26.92;28.82;100397.25;5073275;28;20079;-67
2022/07/16 09:58:53;;;;;;;4.97;2.10;;;;;;;26.77;28.41;100402.78;5072717;28;20047;-70
2022/07/16 10:01:22;;;;;;;4.32;1.92;;;;;;;27.07;28.36;100396.19;5072797;28;20040;-68
2022/07/16 10:03:53;;;;;;;3.72;1.80;;;;;;;27.54;27.97;100400.16;5072558;28;20435;-68
2022/07/16 10:06:22;;;;;;;4.35;1.88;;;;;;;27.77;28.27;100391.72;5054942;28;20060;-68
2022/07/16 10:08:51;;;;;;;4.72;1.90;;;;;;;27.29;28.74;100394.25;5072428;28;20072;-68
2022/07/16 10:11:19;;;;;;;4.28;2.15;;;;;;;27.51;28.30;100399.72;5054604;28;20076;-67
2022/07/16 10:13:48;;;;;;;4.32;2.00;;;;;;;27.12;28.75;100408.41;5072246;28;20093;-68
2022/07/16 10:16:16;;;;;;;3.90;1.85;;;;;;;27.06;28.98;100399.97;5072522;28;20048;-67
2022/07/16 10:18:47;;;;;;;4.10;1.90;;;;;;;27.18;28.47;100403.00;5072629;28;20083;-67
2022/07/16 10:21:21;;;;;;;4.15;2.03;;;;;;;27.12;28.86;100390.13;5072824;28;20481;-68
2022/07/16 10:24:03;;;;;;;6.28;1.90;;;;;;;27.51;27.89;100391.50;5072382;28;20070;-68
2022/07/16 10:26:33;;;;;;;3.28;1.90;;;;;;;27.19;28.08;100381.94;5072803;28;20045;-67
2022/07/16 10:29:03;;;;;;;4.10;2.08;;;;;;;26.81;28.62;100379.44;5072414;28;20401;-67
2022/07/16 10:31:37;;;;;;;5.30;1.80;;;;;;;26.92;29.00;100375.34;5072756;28;20083;-67
2022/07/16 10:34:35;;;;;;;6.00;2.00;;;;;;;26.91;28.17;100371.75;5071069;28;20139;-68
2022/07/16 10:37:07;;;;;;;5.85;2.33;;;;;;;26.84;28.59;100372.75;5075280;28;20095;-67
2022/07/16 10:39:58;;;;;;;4.05;2.15;;;;;;;26.91;28.97;100366.28;5058383;28;20049;-67
2022/07/16 10:42:27;;;;;;;5.00;2.17;;;;;;;27.03;28.53;100366.66;5058362;28;20132;-67
2022/07/16 10:44:56;;;;;;;6.60;2.80;;;;;;;26.92;28.69;100364.41;5075513;28;20068;-68
2022/07/16 10:47:44;;;;;;;3.88;2.13;;;;;;;26.96;28.53;100357.50;5058136;28;20607;-67
2022/07/16 10:50:18;;;;;;;7.07;2.13;;;;;;;27.33;27.99;100349.03;5075829;28;20142;-68
2022/07/16 10:52:51;;;;;;;4.53;2.03;;;;;;;27.37;27.98;100365.88;5075942;28;20455;-67
2022/07/16 10:55:35;;;;;;;3.97;2.00;;;;;;;27.13;28.42;100367.19;5075965;28;20040;-68
2022/07/16 10:58:03;;;;;;;4.45;2.10;;;;;;;26.85;28.95;100352.56;5075675;28;20043;-67
2022/07/16 11:00:32;;;;;;;4.80;2.10;;;;;;;27.02;29.22;100343.94;5075620;28;20124;-67
2022/07/16 11:03:04;;;;;;;5.18;2.05;;;;;;;27.05;28.45;100353.63;5075327;28;20072;-68
2022/07/16 11:05:48;;;;;;;4.07;2.03;;;;;;;26.91;28.75;100349.03;5075315;28;20048;-67
2022/07/16 11:08:19;;;;;;;4.72;2.10;;;;;;;27.05;28.98;100345.41;5057837;28;20049;-67
2022/07/16 11:10:49;;;;;;;3.78;1.85;;;;;;;27.14;29.32;100344.22;5075435;28;20130;-67
2022/07/16 11:13:19;;;;;;;5.72;2.00;;;;;;;27.32;28.48;100338.28;5075610;28;20119;-68
2022/07/16 11:15:48;;;;;;;4.90;2.00;;;;;;;27.13;28.67;100350.75;5057455;28;20564;-68
2022/07/16 11:18:17;;;;;;;3.53;2.10;;;;;;;27.08;28.21;100331.31;5075458;28;20060;-68
2022/07/16 11:20:48;;;;;;;3.95;2.00;;;;;;;27.10;28.61;100337.44;5074301;28;20102;-68
2022/07/16 11:23:19;;;;;;;3.42;2.03;;;;;;;27.24;28.11;100336.53;5075384;28;20068;-68
2022/07/16 11:25:55;;;;;;;5.63;2.03;;;;;;;27.28;28.25;100335.06;5075269;28;20040;-67
2022/07/16 11:28:24;;;;;;;4.68;1.95;;;;;;;27.45;28.39;100332.03;5075113;28;20501;-67
2022/07/16 11:31:08;;;;;;;3.20;1.92;;;;;;;27.34;27.91;100326.06;5075039;28;20405;-68
2022/07/16 11:33:59;;;;;;;4.25;2.00;;;;;;;27.60;28.40;100330.00;5073913;28;20413;-66
2022/07/16 11:36:29;;;;;;;5.50;1.95;;;;;;;27.66;28.07;100330.09;5075155;28;20096;-66
2022/07/16 11:39:02;;;;;;;3.47;1.75;;;;;;;27.54;28.11;100326.19;5056584;28;20501;-66
2022/07/16 11:41:32;;;;;;;5.45;2.25;;;;;;;27.67;27.77;100334.53;5075183;28;20052;-66